Home > Products > Valid Products > MTR

000
SAUS45 KPIH 211252
MTRSNT
METAR KSNT 211251Z AUTO 03/M01 A2973 RMK AO1 SLP037 P0001 T00281006





000
SAUS45 KPIH 211152
MTRSNT
METAR KSNT 211151Z AUTO 12006KT 02/M01 A2973 RMK AO1 SLP042 P0003
60032 70049 T00171006 10022 20006 58015





000
SAUS45 KPIH 211152
MTRSNT
METAR KSNT 211151Z AUTO 12006KT 02/M01 A2973 RMK AO1 SLP042 P0003
60032 70049 T00171006 10022 20006 58015





000
SAUS45 KPIH 211052
MTRSNT
METAR KSNT 211051Z AUTO 13013G16KT 02/M01 A2975 RMK AO1 SLP043 P0005
T00171006





000
SAUS45 KPIH 211052
MTRSNT
METAR KSNT 211051Z AUTO 13013G16KT 02/M01 A2975 RMK AO1 SLP043 P0005
T00171006





000
SAUS45 KPIH 210952
MTRSNT
METAR KSNT 210951Z AUTO 14007KT 01/M01 A2978 RMK AO1 SLP053 P0005
T00111006





000
SAUS45 KPIH 210952
MTRSNT
METAR KSNT 210951Z AUTO 14007KT 01/M01 A2978 RMK AO1 SLP053 P0005
T00111006





000
SAUS45 KPIH 210952
MTRSNT
METAR KSNT 210951Z AUTO 14007KT 01/M01 A2978 RMK AO1 SLP053 P0005
T00111006





000
SAUS45 KPIH 210852
MTRSNT
METAR KSNT 210851Z AUTO 12011KT 01/M01 A2979 RMK AO1 SLP061 P0007
60019 T00111011 58010





000
SAUS45 KPIH 210752
MTRSNT
METAR KSNT 210751Z AUTO 13007KT 01/M01 A2981 RMK AO1 SLP068 P0005
T00111011





000
SAUS45 KPIH 210652
MTRSNT
METAR KSNT 210651Z AUTO 12010KT 01/M01 A2981 RMK AO1 SLP071 P0007
T00061011 400171078





000
SAUS45 KPIH 210652
MTRSNT
METAR KSNT 210651Z AUTO 12010KT 01/M01 A2981 RMK AO1 SLP071 P0007
T00061011 400171078





000
SAUS45 KPIH 210552
MTRSNT
METAR KSNT 210551Z AUTO 14010G17KT 01/M02 A2983 RMK AO1 SLP085 P0006
60015 T00061017 10011 20000 58013





000
SAUS45 KPIH 210452
MTRSNT
METAR KSNT 210451Z AUTO 15008KT 01/M02 A2985 RMK AO1 SLP097 P0005
T00061017





000
SAUS45 KPIH 210352
MTRSNT
METAR KSNT 210351Z AUTO 14009KT 01/M02 A2986 RMK AO1 SLP103 P0001
T00061022





000
SAUS45 KPIH 210352
MTRSNT
METAR KSNT 210351Z AUTO 14009KT 01/M02 A2986 RMK AO1 SLP103 P0001
T00061022





000
SAUS45 KPIH 210252
MTRSNT
METAR KSNT 210251Z AUTO 14009KT 00/M02 A2987 RMK AO1 SLP110 P0003
60003 T00001022 56005





000
SAUS45 KPIH 210152
MTRSNT
METAR KSNT 210151Z AUTO 15007KT 00/M02 A2987 RMK AO1 SLP111
T00001022





000
SAUS45 KPIH 210052
MTRSNT
METAR KSNT 210051Z AUTO 14008KT 01/M03 A2988 RMK AO1 SLP109
T00061028





000
SAUS45 KPIH 202352
MTRSNT
METAR KSNT 202351Z AUTO 13007KT 01/M03 A2989 RMK AO1 SLP116 60001
T00061028 10017 21033 56005





000
SAUS45 KPIH 202252
MTRSNT
METAR KSNT 202251Z AUTO 13005KT 01/M03 A2989 RMK AO1 SLP118 P0001
T00111028





000
SAUS45 KPIH 202152
MTRSNT
METAR KSNT 202151Z AUTO VRB06KT 02/M03 A2989 RMK AO1 SLP115
T00171028





000
SAUS45 KPIH 202053
MTRSNT
METAR KSNT 202051Z AUTO 14008KT 01/M03 A2991 RMK AO1 SLP120
T00111028 56016





000
SAUS45 KPIH 201952
MTRSNT
METAR KSNT 201951Z AUTO 13005KT 01/M03 A2991 RMK AO1 SLP118
T00111028





000
SAUS45 KPIH 201852
MTRSNT
METAR KSNT 201851Z AUTO 14007KT 01/M03 A2994 RMK AO1 SLP121
T00061033





000
SAUS45 KPIH 201752
MTRSNT
METAR KSNT 201751Z AUTO 00000KT M03/M06 A2997 RMK AO1 SLP140 60001
T10331056 11033 21061 55000





000
SAUS45 KPIH 201652
MTRSNT
METAR KSNT 201651Z AUTO 00000KT M04/M07 A2996 RMK AO1 SLP143 P0001
T10441072





000
SAUS45 KPIH 201552
MTRSNT
METAR KSNT 201551Z AUTO 00000KT M06/M08 A2997 RMK AO1 SLP146
T10561078





000
SAUS45 KPIH 201452
MTRSNT
METAR KSNT 201451Z AUTO 00000KT M06/M08 A2997 RMK AO1 SLP146
T10561083 56006





000
SAUS45 KPIH 201352
MTRSNT
METAR KSNT 201351Z AUTO 00000KT M06/M08 A2998 RMK AO1 SLP151
T10611083





000
SAUS45 KPIH 201252
MTRSNT
METAR KSNT 201251Z AUTO 00000KT M06/M09 A2998 RMK AO1 SLP147
T10561089





000
SAUS45 KPIH 201153
MTRSNT
METAR KSNT 201151Z AUTO VRB04KT M06/M09 A2999 RMK AO1 SLP152 70007
T10611094 11017 21078 58006





000
SAUS45 KPIH 201052
MTRSNT
METAR KSNT 201051Z AUTO VRB03KT M07/M09 A3003 RMK AO1 SLP165
T10671094





000
SAUS45 KPIH 200952
MTRSNT
METAR KSNT 200951Z AUTO 17003KT M07/M09 A3003 RMK AO1 SLP168
T10671089





000
SAUS45 KPIH 200853
MTRSNT
METAR KSNT 200851Z AUTO 17005KT M06/M08 A3001 RMK AO1 SLP161
T10611083 58012





000
SAUS45 KPIH 200752
MTRSNT
METAR KSNT 200751Z AUTO VRB04KT M05/M07 A3003 RMK AO1 SLP164
T10501072





000
SAUS45 KPIH 200752
MTRSNT
METAR KSNT 200751Z AUTO VRB04KT M05/M07 A3003 RMK AO1 SLP164
T10501072





000
SAUS45 KPIH 200652
MTRSNT
METAR KSNT 200651Z AUTO 15003KT M02/M05 A3004 RMK AO1 SLP156
T10221050 400171028





000
SAUS45 KPIH 200552
MTRSNT
METAR KSNT 200551Z AUTO 00000KT M02/M04 A3006 RMK AO1 SLP161 60001
T10171044 10006 21022 53010





000
SAUS45 KPIH 200452
MTRSNT
METAR KSNT 200451Z AUTO 27004KT M02/M04 A3003 RMK AO1 SLP155
T10221039





000
SAUS45 KPIH 200352
MTRSNT
METAR KSNT 200351Z AUTO 00000KT M02/M04 A3003 RMK AO1 SLP158
T10171039





000
SAUS45 KPIH 200352
MTRSNT
METAR KSNT 200351Z AUTO 00000KT M02/M04 A3003 RMK AO1 SLP158
T10171039





000
SAUS45 KPIH 200252
MTRSNT
METAR KSNT 200251Z AUTO 29003KT M02/M04 A3002 RMK AO1 SLP150 60001
T10171039 53006





000
SAUS45 KPIH 200152
MTRSNT
METAR KSNT 200151Z AUTO 00000KT M01/M03 A3000 RMK AO1 SLP144 P0001
T10111033





000
SAUS45 KPIH 200152
MTRSNT
METAR KSNT 200151Z AUTO 00000KT M01/M03 A3000 RMK AO1 SLP144 P0001
T10111033





000
SAUS45 KPIH 200052
MTRSNT
METAR KSNT 200051Z AUTO 00/M02 A3000 RMK AO1 SLP141 T00001022





000
SAUS45 KPIH 192352
MTRSNT
METAR KSNT 192351Z AUTO 00000KT 00/M02 A3000 RMK AO1 SLP140 P0001
60005 T00001022 10017 20000 53007





000
SAUS45 KPIH 192252
MTRSNT
METAR KSNT 192251Z AUTO 12005KT 01/M02 A2998 RMK AO1 SLP131 P0001
T00061022





000
SAUS45 KPIH 192152
MTRSNT
METAR KSNT 192151Z AUTO 14008KT 00/M03 A2997 RMK AO1 SLP131 P0002
T00001028





000
SAUS45 KPIH 192052
MTRSNT
METAR KSNT 192051Z AUTO 14008G18KT 01/M03 A2997 RMK AO1 SLP128 P0001
60001 T00061028 55008





000
SAUS45 KPIH 191952
MTRSNT
METAR KSNT 191951Z AUTO 13010G18KT 01/M03 A2997 RMK AO1 SLP127
T00061028





000
SAUS45 KPIH 191952
MTRSNT
METAR KSNT 191951Z AUTO 13010G18KT 01/M03 A2997 RMK AO1 SLP127
T00061028





000
SAUS45 KPIH 191852
MTRSNT
METAR KSNT 191851Z AUTO 14011G18KT 02/M04 A2998 RMK AO1 SLP129
T00171039





000
SAUS45 KPIH 191752
MTRSNT
METAR KSNT 191751Z AUTO 15010KT 01/M04 A3000 RMK AO1 SLP141 60001
T00111039 10011 21006 56006





000
SAUS45 KPIH 191652
MTRSNT
METAR KSNT 191651Z AUTO 15009KT 01/M04 A3000 RMK AO1 SLP142
T00061039





000
SAUS45 KPIH 191552
MTRSNT
METAR KSNT 191551Z AUTO 16006KT M01/M04 A3001 RMK AO1 SLP147 P0001
T10061039





000
SAUS45 KPIH 191452
MTRSNT
METAR KSNT 191451Z AUTO 14005KT 00/M04 A3002 RMK AO1 SLP150
T00001044 55007





000
SAUS45 KPIH 191352
MTRSNT
METAR KSNT 191351Z AUTO 11008KT M01/M04 A3002 RMK AO1 SLP152
T10061039





000
SAUS45 KPIH 191252
MTRSNT
METAR KSNT 191251Z AUTO 15010KT M01/M04 A3003 RMK AO1 SLP154
T10061039





000
SAUS45 KPIH 191152
MTRSNT
METAR KSNT 191151Z AUTO 15007KT M01/M04 A3005 RMK AO1 SLP161 70001
T10061039 10006 21017 53001





000
SAUS45 KPIH 191052
MTRSNT
METAR KSNT 191051Z AUTO 15006KT 00/M05 A3004 RMK AO1 SLP157
T00001050





000
SAUS45 KPIH 190952
MTRSNT
METAR KSNT 190951Z AUTO 14007KT 00/M05 A3004 RMK AO1 SLP159
T00001050





000
SAUS45 KPIH 190952
MTRSNT
METAR KSNT 190951Z AUTO 14007KT 00/M05 A3004 RMK AO1 SLP159
T00001050





000
SAUS45 KPIH 190852
MTRSNT
METAR KSNT 190851Z AUTO 16006KT 00/M04 A3005 RMK AO1 SLP163
T00001044 55004





000
SAUS45 KPIH 190752
MTRSNT
METAR KSNT 190751Z AUTO 17010KT 00/M05 A3004 RMK AO1 SLP162
T00001050





000
SAUS45 KPIH 190652
MTRSNT
METAR KSNT 190651Z AUTO 14005KT M01/M05 A3006 RMK AO1 SLP173
T10061050 400001094





000
SAUS45 KPIH 190552
MTRSNT
METAR KSNT 190551Z AUTO 00000KT M01/M04 A3006 RMK AO1 SLP179
T10111044 11006 21017 53001





000
SAUS45 KPIH 190452
MTRSNT
METAR KSNT 190451Z AUTO 14005KT M01/M04 A3005 RMK AO1 SLP176
T10061044





000
SAUS45 KPIH 190352
MTRSNT
METAR KSNT 190351Z AUTO 12004KT M01/M04 A3005 RMK AO1 SLP179
T10061044





000
SAUS45 KPIH 190352
MTRSNT
METAR KSNT 190351Z AUTO 12004KT M01/M04 A3005 RMK AO1 SLP179
T10061044





000
SAUS45 KPIH 190252
MTRSNT
METAR KSNT 190251Z AUTO 12003KT M01/M04 A3006 RMK AO1 SLP184
T10061044 51005





000
SAUS45 KPIH 190152
MTRSNT
METAR KSNT 190151Z AUTO 00000KT M01/M04 A3005 RMK AO1 SLP180
T10111039





000
SAUS45 KPIH 190152
MTRSNT
METAR KSNT 190151Z AUTO 00000KT M01/M04 A3005 RMK AO1 SLP180
T10111039





000
SAUS45 KPIH 190052
MTRSNT
METAR KSNT 190051Z AUTO 00000KT M01/M04 A3005 RMK AO1 SLP176
T10111039





000
SAUS45 KPIH 182352
MTRSNT
METAR KSNT 182351Z AUTO 00000KT M01/M04 A3004 RMK AO1 SLP171 P0001
60001 T10111039 11011 21056 53000





000
SAUS45 KPIH 182252
MTRSNT
METAR KSNT 182251Z AUTO 34004KT M01/M05 A3003 RMK AO1 SLP173
T10111050





000
SAUS45 KPIH 182152
MTRSNT
METAR KSNT 182151Z AUTO 00000KT M01/M06 A3003 RMK AO1 SLP174
T10111056





000
SAUS45 KPIH 182052
MTRSNT
METAR KSNT 182051Z AUTO 35004KT M02/M07 A3004 RMK AO1 SLP174
T10221067 56013





000
SAUS45 KPIH 181952
MTRSNT
METAR KSNT 181951Z AUTO 00000KT M02/M07 A3005 RMK AO1 SLP179
T10221067





000
SAUS45 KPIH 181852
MTRSNT
METAR KSNT 181851Z AUTO 34003KT M04/M08 A3006 RMK AO1 SLP190
T10441078





000
SAUS45 KPIH 181752
MTRSNT
METAR KSNT 181751Z AUTO 35004KT M06/M08 A3008 RMK AO1 SLP200
T10561083 11050 21094 53009





000
SAUS45 KPIH 181652
MTRSNT
METAR KSNT 181651Z AUTO 00000KT M06/M09 A3007 RMK AO1 SLP196
T10611089





000
SAUS45 KPIH 181552
MTRSNT
METAR KSNT 181551Z AUTO 00000KT M07/M10 A3005 RMK AO1 SLP193
T10721100





000
SAUS45 KPIH 181452
MTRSNT
METAR KSNT 181451Z AUTO 00000KT M08/M11 A3005 RMK AO1 SLP188
T10831111 53005





000
SAUS45 KPIH 181353
MTRSNT
METAR KSNT 181351Z AUTO 00000KT M07/M09 A3004 RMK AO1 SLP183
T10671094





000
SAUS45 KPIH 181353
MTRSNT
METAR KSNT 181351Z AUTO 00000KT M07/M09 A3004 RMK AO1 SLP183
T10671094





    US Dept of Commerce
    National Oceanic and Atmospheric Administration
    National Weather Service
    1325 East West Highway
    Silver Spring, MD 20910
    Page Author: NWS Internet Services Team
Disclaimer
Information Quality
Credits
Glossary
Privacy Policy
Freedom of Information Act (FOIA)
About Us
Career Opportunities